Time;durP1;ratioP1;P1;durP2;ratioP2;P2;SDS_P1;SDS_P2;PMS_P1;PMS_P2;Temp;Humidity;BMP_temperature;BMP_pressure;BME280_temperature;BME280_humidity;BME280_pressure;Samples;Min_cycle;Max_cycle;Signal;HPM_P1;HPM_P2
2023/10/19 00:02:51;;;;;;;;;;;;;;;20.58;40.33;94228.88;10440951;28;2383;-58
2023/10/19 00:07:53;;;;;;;;;;;;;;;20.57;40.34;94230.72;10439238;28;4551;-58
2023/10/19 00:13:00;;;;;;;;;;;;;;;20.55;40.43;94225.00;10433871;28;2556;-58
2023/10/19 00:18:06;;;;;;;;;;;;;;;20.51;40.54;94218.81;10432642;28;2657;-59
2023/10/19 00:23:06;;;;;;;;;;;;;;;20.51;40.29;94208.28;10431151;28;2977;-59
2023/10/19 00:28:07;;;;;;;;;;;;;;;20.48;40.33;94208.91;10430575;28;2559;-58
2023/10/19 00:33:16;;;;;;;;;;;;;;;20.48;40.08;94203.63;10433760;28;2655;-57
2023/10/19 00:43:42;;;;;;;;;;;;;;;20.45;40.27;94185.81;10438814;28;1900;-58
2023/10/19 00:48:56;;;;;;;;;;;;;;;20.43;40.32;94174.06;10432406;28;2567;-59
2023/10/19 00:53:58;;;;;;;;;;;;;;;20.41;40.24;94155.16;10420746;28;2571;-57
2023/10/19 00:59:12;;;;;;;;;;;;;;;20.40;40.38;94158.91;10424641;28;2579;-59
2023/10/19 01:04:14;;;;;;;;;;;;;;;20.38;40.06;94159.19;10424017;28;2580;-59
2023/10/19 01:09:14;;;;;;;;;;;;;;;20.36;40.07;94150.81;10425323;28;4602;-58
2023/10/19 01:14:21;;;;;;;;;;;;;;;20.33;40.17;94148.81;10423013;28;2666;-58
2023/10/19 01:19:27;;;;;;;;;;;;;;;20.35;40.27;94151.13;10432197;28;2596;-58
2023/10/19 01:24:42;;;;;;;;;;;;;;;20.32;40.23;94172.81;10436475;28;1902;-59
2023/10/19 01:29:43;;;;;;;;;;;;;;;20.30;40.21;94181.00;10436404;28;1957;-58
2023/10/19 01:34:43;;;;;;;;;;;;;;;20.28;40.26;94177.91;10436372;28;2674;-58
2023/10/19 01:39:45;;;;;;;;;;;;;;;20.27;40.23;94165.84;10428853;28;2532;-59
2023/10/19 01:44:45;;;;;;;;;;;;;;;20.26;40.15;94185.34;10420590;28;2689;-60
2023/10/19 01:49:52;;;;;;;;;;;;;;;20.24;40.22;94172.50;10425423;28;2629;-59
2023/10/19 01:54:58;;;;;;;;;;;;;;;20.23;40.08;94170.19;10427904;28;2631;-58
2023/10/19 01:59:59;;;;;;;;;;;;;;;20.22;40.27;94158.09;10435817;28;1953;-59
2023/10/19 02:04:59;;;;;;;;;;;;;;;20.19;40.38;94156.88;10438622;28;2173;-59
2023/10/19 02:10:00;;;;;;;;;;;;;;;20.19;40.16;94140.28;10434821;28;2646;-59
2023/10/19 02:15:00;;;;;;;;;;;;;;;20.17;40.21;94153.72;10429405;28;2826;-59
2023/10/19 02:20:00;;;;;;;;;;;;;;;20.14;40.31;94167.50;10426397;28;2712;-59
2023/10/19 02:25:01;;;;;;;;;;;;;;;20.15;40.31;94157.78;10425998;28;2552;-59
2023/10/19 02:30:02;;;;;;;;;;;;;;;20.14;40.39;94148.31;10438176;28;2796;-59
2023/10/19 02:35:02;;;;;;;;;;;;;;;20.11;40.20;94144.44;10435022;28;2563;-59
2023/10/19 02:40:12;;;;;;;;;;;;;;;20.09;40.38;94138.72;10433718;28;2563;-59
2023/10/19 02:45:12;;;;;;;;;;;;;;;20.10;40.23;94142.13;10435845;28;2732;-59
2023/10/19 02:50:17;;;;;;;;;;;;;;;20.09;40.01;94133.44;10431514;28;2610;-59
2023/10/19 02:55:17;;;;;;;;;;;;;;;20.07;39.97;94121.72;10423261;28;2702;-58
2023/10/19 03:00:20;;;;;;;;;;;;;;;20.05;40.36;94118.63;10435643;28;2602;-59
2023/10/19 03:05:20;;;;;;;;;;;;;;;20.04;40.28;94111.78;10432200;28;2587;-59
2023/10/19 03:10:25;;;;;;;;;;;;;;;20.04;39.93;94096.78;10432211;28;4714;-59
2023/10/19 03:15:27;;;;;;;;;;;;;;;20.02;40.08;94101.59;10435030;28;2626;-59
2023/10/19 03:20:28;;;;;;;;;;;;;;;20.00;40.49;94105.59;10429886;28;2639;-58
2023/10/19 03:30:47;;;;;;;;;;;;;;;20.00;40.31;94081.94;10433205;28;2621;-59
2023/10/19 03:35:47;;;;;;;;;;;;;;;19.98;40.26;94084.88;10431061;28;2586;-58
2023/10/19 03:40:51;;;;;;;;;;;;;;;19.96;40.09;94068.63;10433675;28;2629;-59
2023/10/19 03:45:52;;;;;;;;;;;;;;;19.96;40.16;94081.00;10432453;28;2586;-59
2023/10/19 03:50:55;;;;;;;;;;;;;;;19.92;40.39;94065.09;10427272;28;2543;-59
2023/10/19 03:55:55;;;;;;;;;;;;;;;19.93;40.09;94077.13;10433541;28;2535;-59
2023/10/19 04:01:01;;;;;;;;;;;;;;;19.94;39.90;94067.41;10428195;28;2596;-59
2023/10/19 04:06:03;;;;;;;;;;;;;;;19.92;40.16;94067.72;10432953;28;2928;-59
2023/10/19 04:11:22;;;;;;;;;;;;;;;19.91;40.37;94071.41;10430538;28;4693;-59
2023/10/19 04:16:22;;;;;;;;;;;;;;;19.96;40.45;94068.63;10431039;28;2595;-58
2023/10/19 04:21:23;;;;;;;;;;;;;;;20.04;40.36;94067.09;10426934;28;2627;-58
2023/10/19 04:26:24;;;;;;;;;;;;;;;20.11;40.14;94057.63;10434405;28;2535;-59
2023/10/19 04:31:24;;;;;;;;;;;;;;;20.21;40.13;94046.06;10434757;28;2553;-58
2023/10/19 04:36:25;;;;;;;;;;;;;;;20.32;40.11;94047.28;10430156;28;2801;-59
2023/10/19 04:41:28;;;;;;;;;;;;;;;20.43;39.70;94037.97;10430330;28;2786;-57
2023/10/19 04:46:29;;;;;;;;;;;;;;;20.53;39.27;94042.91;10426411;28;2599;-58
2023/10/19 04:51:29;;;;;;;;;;;;;;;20.63;38.87;94039.19;10424029;28;2575;-56
2023/10/19 04:56:29;;;;;;;;;;;;;;;20.74;39.19;94040.38;10432627;28;2534;-58
2023/10/19 05:01:31;;;;;;;;;;;;;;;20.80;38.77;94042.53;10427489;28;2551;-58
2023/10/19 05:06:31;;;;;;;;;;;;;;;20.86;38.82;94038.63;10430523;28;2620;-57
2023/10/19 05:11:31;;;;;;;;;;;;;;;20.93;38.62;94031.00;10427669;28;4805;-57
2023/10/19 05:16:32;;;;;;;;;;;;;;;20.96;38.89;94021.69;10426641;28;2788;-59
2023/10/19 05:21:33;;;;;;;;;;;;;;;21.03;38.50;94027.28;10435326;28;2621;-58
2023/10/19 05:26:34;;;;;;;;;;;;;;;21.10;38.49;94024.94;10428986;28;2618;-59
2023/10/19 05:31:35;;;;;;;;;;;;;;;21.11;38.52;94025.69;10430952;28;2618;-58
2023/10/19 05:36:35;;;;;;;;;;;;;;;21.16;38.24;94030.78;10425530;28;2599;-58
2023/10/19 05:41:35;;;;;;;;;;;;;;;21.19;38.12;94025.63;10423377;28;2552;-57
2023/10/19 05:46:36;;;;;;;;;;;;;;;21.25;38.00;94018.31;10427980;28;2610;-58
2023/10/19 05:51:36;;;;;;;;;;;;;;;21.31;38.08;94017.06;10418058;28;2650;-58
2023/10/19 05:56:36;;;;;;;;;;;;;;;21.34;37.68;94011.91;10422141;28;2622;-57
2023/10/19 06:01:41;;;;;;;;;;;;;;;21.38;37.52;94010.19;10432588;28;2642;-57
2023/10/19 06:06:41;;;;;;;;;;;;;;;21.43;37.45;94006.59;10433945;28;2613;-57
2023/10/19 06:11:42;;;;;;;;;;;;;;;21.47;37.62;94010.91;10433038;28;2606;-59
2023/10/19 06:16:43;;;;;;;;;;;;;;;21.52;37.55;94018.63;10433669;28;2585;-56
2023/10/19 06:21:43;;;;;;;;;;;;;;;21.57;37.65;94028.22;10433041;28;2676;-58
2023/10/19 06:26:43;;;;;;;;;;;;;;;21.58;37.44;94032.38;10428566;28;2667;-58
2023/10/19 06:31:44;;;;;;;;;;;;;;;21.61;37.46;94029.13;10432529;28;2623;-56
2023/10/19 06:36:45;;;;;;;;;;;;;;;21.65;37.66;94024.75;10423350;28;2595;-57
2023/10/19 06:41:45;;;;;;;;;;;;;;;21.65;38.11;94007.06;10428746;28;2612;-56
2023/10/19 06:46:46;;;;;;;;;;;;;;;21.66;38.15;94002.53;10433368;28;2635;-55
2023/10/19 06:51:46;;;;;;;;;;;;;;;21.63;37.91;93995.28;10429903;28;2663;-56
2023/10/19 06:56:46;;;;;;;;;;;;;;;21.60;37.87;93996.69;10430953;28;2642;-55
2023/10/19 07:01:47;;;;;;;;;;;;;;;21.56;38.10;94003.69;10423598;28;2585;-56
2023/10/19 07:06:47;;;;;;;;;;;;;;;21.55;38.15;94006.66;10432556;28;2662;-57
2023/10/19 07:11:48;;;;;;;;;;;;;;;21.53;38.12;94006.22;10422357;28;4744;-57
2023/10/19 07:16:51;;;;;;;;;;;;;;;21.50;38.20;94010.25;10431555;28;2578;-58
2023/10/19 07:21:57;;;;;;;;;;;;;;;21.48;38.84;93998.47;10432048;28;2593;-59
2023/10/19 07:27:04;;;;;;;;;;;;;;;21.47;39.03;94007.50;10426034;28;2621;-59
2023/10/19 07:32:04;;;;;;;;;;;;;;;21.47;39.31;94018.81;10425434;28;2691;-59
2023/10/19 07:37:08;;;;;;;;;;;;;;;21.46;39.46;94013.84;10426639;28;2611;-58
2023/10/19 07:42:08;;;;;;;;;;;;;;;21.44;39.48;94000.22;10424697;28;2626;-59
2023/10/19 07:47:09;;;;;;;;;;;;;;;21.36;40.60;93995.78;10422400;28;2643;-58
2023/10/19 07:52:14;;;;;;;;;;;;;;;21.30;40.56;93989.94;10420247;28;2562;-59
2023/10/19 07:57:15;;;;;;;;;;;;;;;21.31;40.52;93995.97;10435402;28;2520;-59
2023/10/19 08:02:15;;;;;;;;;;;;;;;21.24;40.98;93996.47;10440945;28;1958;-58
2023/10/19 08:07:17;;;;;;;;;;;;;;;21.23;40.98;93996.78;10433790;28;4613;-58
2023/10/19 08:12:17;;;;;;;;;;;;;;;21.19;41.36;93980.06;10437456;28;1978;-58
2023/10/19 08:17:17;;;;;;;;;;;;;;;21.21;41.18;93986.56;10438812;28;1506;-58
2023/10/19 08:22:17;;;;;;;;;;;;;;;21.14;41.39;93967.09;10436373;28;1570;-56
2023/10/19 08:27:18;;;;;;;;;;;;;;;21.14;41.45;93967.09;10439310;28;2429;-58
2023/10/19 08:32:18;;;;;;;;;;;;;;;21.14;40.95;93967.09;10438137;28;1484;-58
2023/10/19 08:37:19;;;;;;;;;;;;;;;21.08;40.96;93968.38;10437047;28;1518;-58
2023/10/19 08:42:20;;;;;;;;;;;;;;;21.04;40.93;93965.59;10434430;28;1742;-56
2023/10/19 08:47:25;;;;;;;;;;;;;;;21.01;40.80;93974.88;10438599;28;1976;-58
2023/10/19 08:52:26;;;;;;;;;;;;;;;21.02;40.51;93971.16;10432588;28;2053;-57
2023/10/19 08:57:28;;;;;;;;;;;;;;;20.96;40.84;93967.16;10434573;28;1956;-58
2023/10/19 09:02:28;;;;;;;;;;;;;;;20.97;40.94;93968.72;10436738;28;1790;-57
2023/10/19 09:07:30;;;;;;;;;;;;;;;20.93;41.04;93962.53;10438697;28;1938;-59
2023/10/19 09:12:31;;;;;;;;;;;;;;;20.93;40.87;93964.38;10441155;28;2649;-59
2023/10/19 09:17:31;;;;;;;;;;;;;;;20.91;41.22;93956.81;10435434;28;2114;-58
2023/10/19 09:22:36;;;;;;;;;;;;;;;20.90;41.11;93963.16;10435890;28;1616;-60
2023/10/19 09:27:37;;;;;;;;;;;;;;;20.90;41.43;93962.38;10436271;28;1918;-59
2023/10/19 09:32:39;;;;;;;;;;;;;;;20.89;41.71;93948.47;10436909;28;1795;-59
2023/10/19 09:37:39;;;;;;;;;;;;;;;20.85;42.08;93954.66;10440079;28;1495;-59
2023/10/19 09:42:46;;;;;;;;;;;;;;;20.86;42.05;93958.84;10444235;28;1790;-59
2023/10/19 09:47:50;;;;;;;;;;;;;;;20.84;42.24;93956.53;10443637;28;1906;-59
2023/10/19 09:52:51;;;;;;;;;;;;;;;20.82;42.18;93940.28;10444556;28;1383;-59
2023/10/19 09:58:09;;;;;;;;;;;;;;;20.82;42.28;93939.50;10448730;28;2855;-59
2023/10/19 10:03:30;;;;;;;;;;;;;;;20.79;42.31;93940.91;10424219;28;2544;-59
2023/10/19 10:08:31;;;;;;;;;;;;;;;20.76;42.91;93930.22;10438837;28;4637;-59
2023/10/19 10:13:37;;;;;;;;;;;;;;;20.72;43.02;93922.19;10435545;28;2611;-62
2023/10/19 10:18:37;;;;;;;;;;;;;;;20.72;43.01;93906.41;10432792;28;2670;-59
2023/10/19 10:23:42;;;;;;;;;;;;;;;20.70;42.87;93913.84;10435129;28;2625;-58
2023/10/19 10:28:45;;;;;;;;;;;;;;;20.68;43.14;93920.50;10438488;28;2639;-59
2023/10/19 10:33:46;;;;;;;;;;;;;;;20.66;43.27;93920.06;10438515;28;2596;-59
2023/10/19 10:38:48;;;;;;;;;;;;;;;20.64;42.95;93904.59;10434212;28;2640;-59
2023/10/19 10:43:49;;;;;;;;;;;;;;;20.62;42.76;93906.78;10438795;28;2621;-59
2023/10/19 10:48:50;;;;;;;;;;;;;;;20.61;43.04;93907.84;10434748;28;2625;-59
2023/10/19 10:53:51;;;;;;;;;;;;;;;20.59;43.00;93896.09;10435111;28;2573;-59
2023/10/19 10:58:51;;;;;;;;;;;;;;;20.56;42.99;93891.47;10437269;28;2592;-58
2023/10/19 11:04:04;;;;;;;;;;;;;;;20.53;42.95;93874.44;10429157;28;2695;-59
2023/10/19 11:09:09;;;;;;;;;;;;;;;20.54;43.08;93876.00;10427388;28;4689;-59
2023/10/19 11:14:11;;;;;;;;;;;;;;;20.53;43.11;93871.81;10425781;28;2601;-59
2023/10/19 11:19:11;;;;;;;;;;;;;;;20.53;43.43;93874.44;10429080;28;2670;-59
2023/10/19 11:24:12;;;;;;;;;;;;;;;20.50;43.33;93874.31;10427608;28;2584;-59
2023/10/19 11:29:16;;;;;;;;;;;;;;;20.52;43.70;93870.28;10421168;28;2584;-59
2023/10/19 11:34:22;;;;;;;;;;;;;;;20.52;43.86;93857.13;10424508;28;2603;-59
2023/10/19 11:39:23;;;;;;;;;;;;;;;20.53;44.37;93834.97;10429827;28;2663;-58
2023/10/19 11:44:23;;;;;;;;;;;;;;;20.52;44.85;93815.00;10435536;28;2634;-58
2023/10/19 11:49:24;;;;;;;;;;;;;;;20.56;44.75;93810.66;10427950;28;2750;-59
2023/10/19 11:54:26;;;;;;;;;;;;;;;20.52;44.61;93799.22;10424691;28;2600;-58
2023/10/19 11:59:26;;;;;;;;;;;;;;;20.51;44.44;93784.50;10424310;28;2607;-59
2023/10/19 12:04:26;;;;;;;;;;;;;;;20.50;44.44;93787.47;10423259;28;2638;-59
2023/10/19 12:09:28;;;;;;;;;;;;;;;20.46;44.50;93776.81;10429071;28;2578;-59
2023/10/19 12:14:28;;;;;;;;;;;;;;;20.46;44.50;93784.72;10431269;28;2621;-59
2023/10/19 12:19:31;;;;;;;;;;;;;;;20.47;44.48;93788.09;10424079;28;2706;-58
2023/10/19 12:24:32;;;;;;;;;;;;;;;20.46;44.52;93789.97;10424977;28;2785;-58
2023/10/19 12:29:32;;;;;;;;;;;;;;;20.45;44.39;93777.09;10434686;28;2645;-59
2023/10/19 12:34:33;;;;;;;;;;;;;;;20.43;44.27;93774.03;10430966;28;2569;-59
2023/10/19 12:39:38;;;;;;;;;;;;;;;20.41;44.42;93760.41;10429594;28;2572;-59
2023/10/19 12:44:41;;;;;;;;;;;;;;;20.42;44.41;93746.97;10426923;28;2613;-58
2023/10/19 12:49:42;;;;;;;;;;;;;;;20.42;44.40;93751.44;10426776;28;2590;-57
2023/10/19 12:54:45;;;;;;;;;;;;;;;20.39;44.38;93744.94;10423257;28;2583;-58
2023/10/19 12:59:45;;;;;;;;;;;;;;;20.46;44.26;93745.22;10426255;28;2768;-56
2023/10/19 13:04:46;;;;;;;;;;;;;;;20.48;44.24;93745.69;10425821;28;2633;-58
2023/10/19 13:09:46;;;;;;;;;;;;;;;20.48;44.18;93737.78;10429302;28;2559;-58
2023/10/19 13:14:46;;;;;;;;;;;;;;;20.48;43.93;93737.78;10428930;28;2694;-59
2023/10/19 13:19:47;;;;;;;;;;;;;;;20.46;44.37;93731.28;10424036;28;2799;-57
2023/10/19 13:24:47;;;;;;;;;;;;;;;20.44;44.04;93739.50;10426714;28;2654;-58
2023/10/19 13:29:47;;;;;;;;;;;;;;;20.41;44.27;93744.63;10428768;28;2685;-58
2023/10/19 13:34:47;;;;;;;;;;;;;;;20.39;44.41;93737.06;10427927;28;2910;-57
2023/10/19 13:39:49;;;;;;;;;;;;;;;20.37;44.09;93731.34;10424751;28;2697;-57
2023/10/19 13:44:49;;;;;;;;;;;;;;;20.35;44.29;93736.16;10429367;28;2624;-57
2023/10/19 13:49:49;;;;;;;;;;;;;;;20.35;44.15;93740.66;10426501;28;2786;-57
2023/10/19 13:54:52;;;;;;;;;;;;;;;20.31;44.07;93743.16;10433963;28;3085;-59
2023/10/19 13:59:53;;;;;;;;;;;;;;;20.29;44.10;93745.34;10426071;28;2561;-57
2023/10/19 14:04:53;;;;;;;;;;;;;;;20.27;44.22;93745.66;10427304;28;2812;-59
2023/10/19 14:09:53;;;;;;;;;;;;;;;20.25;44.24;93768.09;10431902;28;4743;-59
2023/10/19 14:14:54;;;;;;;;;;;;;;;20.25;44.20;93766.25;10423537;28;2677;-59
2023/10/19 14:19:54;;;;;;;;;;;;;;;20.23;44.28;93754.50;10422551;28;2618;-59
2023/10/19 14:24:54;;;;;;;;;;;;;;;20.21;44.11;93725.13;10439321;28;2630;-60
2023/10/19 14:29:55;;;;;;;;;;;;;;;20.19;44.06;93693.88;10434764;28;2610;-59
2023/10/19 14:34:55;;;;;;;;;;;;;;;20.19;44.22;93648.34;10439247;28;2536;-59
2023/10/19 14:39:56;;;;;;;;;;;;;;;20.18;44.14;93691.50;10435233;28;2548;-59
2023/10/19 14:44:56;;;;;;;;;;;;;;;20.18;44.13;93720.44;10435107;28;2805;-59
2023/10/19 14:49:56;;;;;;;;;;;;;;;20.18;44.10;93720.44;10435856;28;2760;-59
2023/10/19 14:54:56;;;;;;;;;;;;;;;20.15;44.05;93708.69;10433169;28;2606;-59
2023/10/19 14:59:57;;;;;;;;;;;;;;;20.14;44.37;93701.13;10434552;28;2587;-59
2023/10/19 15:04:57;;;;;;;;;;;;;;;20.14;44.03;93701.13;10438468;28;2607;-60
2023/10/19 15:09:57;;;;;;;;;;;;;;;20.12;44.46;93713.84;10436896;28;4689;-59
2023/10/19 15:14:58;;;;;;;;;;;;;;;20.12;44.23;93711.19;10433352;28;2555;-57
2023/10/19 15:19:58;;;;;;;;;;;;;;;20.09;44.23;93719.75;10432635;28;2972;-57
2023/10/19 15:24:59;;;;;;;;;;;;;;;20.09;44.06;93706.59;10438799;28;2592;-57
2023/10/19 15:29:59;;;;;;;;;;;;;;;20.06;44.13;93700.09;10434734;28;2568;-57
2023/10/19 15:34:59;;;;;;;;;;;;;;;20.05;44.07;93687.28;10430103;28;2602;-57
2023/10/19 15:40:00;;;;;;;;;;;;;;;20.05;44.28;93695.91;10434486;28;2622;-57
2023/10/19 15:45:01;;;;;;;;;;;;;;;20.05;44.07;93684.66;10437997;28;2660;-58
2023/10/19 15:50:02;;;;;;;;;;;;;;;20.04;44.01;93647.06;10430250;28;2649;-57
2023/10/19 15:55:02;;;;;;;;;;;;;;;20.03;44.06;93655.28;10431894;28;2644;-57
2023/10/19 16:00:03;;;;;;;;;;;;;;;20.02;44.18;93661.59;10428237;28;2670;-58
2023/10/19 16:05:04;;;;;;;;;;;;;;;20.02;44.20;93658.97;10436455;28;2635;-57
2023/10/19 16:10:04;;;;;;;;;;;;;;;20.02;44.16;93661.59;10432522;28;4645;-57
2023/10/19 16:15:06;;;;;;;;;;;;;;;20.00;44.01;93655.91;10430637;28;2686;-57
2023/10/19 16:20:07;;;;;;;;;;;;;;;20.01;44.16;93660.09;10433975;28;2682;-57
2023/10/19 16:25:08;;;;;;;;;;;;;;;19.99;44.25;93649.13;10435639;28;2575;-57
2023/10/19 16:30:12;;;;;;;;;;;;;;;19.96;44.03;93660.25;10426741;28;2531;-56
2023/10/19 16:35:13;;;;;;;;;;;;;;;19.96;44.10;93676.03;10425149;28;2595;-57
2023/10/19 16:40:14;;;;;;;;;;;;;;;19.96;43.91;93666.28;10426823;28;2743;-57
2023/10/19 16:45:16;;;;;;;;;;;;;;;19.94;44.07;93670.31;10426164;28;2557;-57
2023/10/19 16:50:18;;;;;;;;;;;;;;;19.94;43.92;93678.22;10423898;28;2656;-57
2023/10/19 16:55:19;;;;;;;;;;;;;;;19.93;43.92;93668.75;10422497;28;2861;-58
2023/10/19 17:00:19;;;;;;;;;;;;;;;19.92;43.87;93667.25;10426939;28;2654;-58
2023/10/19 17:05:20;;;;;;;;;;;;;;;19.92;43.87;93648.84;10427215;28;2770;-57
2023/10/19 17:10:21;;;;;;;;;;;;;;;19.91;43.88;93642.81;10430194;28;4589;-59
2023/10/19 17:15:21;;;;;;;;;;;;;;;19.92;43.80;93651.47;10426199;28;2585;-59
2023/10/19 17:20:22;;;;;;;;;;;;;;;19.90;43.83;93658.91;10431065;28;2618;-59
2023/10/19 17:25:22;;;;;;;;;;;;;;;19.89;43.75;93654.72;10425496;28;2602;-58
2023/10/19 17:30:24;;;;;;;;;;;;;;;19.89;43.93;93660.75;10431755;28;2628;-58
2023/10/19 17:35:24;;;;;;;;;;;;;;;19.86;43.95;93650.13;10431832;28;2846;-57
2023/10/19 17:40:25;;;;;;;;;;;;;;;19.87;43.82;93641.13;10428512;28;2622;-58
2023/10/19 17:45:25;;;;;;;;;;;;;;;19.87;43.85;93651.63;10428678;28;2724;-57
2023/10/19 17:50:25;;;;;;;;;;;;;;;19.86;43.99;93629.09;10424120;28;2654;-58
2023/10/19 17:55:27;;;;;;;;;;;;;;;19.85;43.83;93615.16;10429618;28;2596;-58
2023/10/19 18:00:27;;;;;;;;;;;;;;;19.84;43.90;93624.16;10432961;28;2667;-59
2023/10/19 18:05:28;;;;;;;;;;;;;;;19.84;43.77;93611.00;10440381;28;2532;-58
2023/10/19 18:10:33;;;;;;;;;;;;;;;19.84;43.54;93610.22;10443392;28;4653;-59
2023/10/19 18:15:36;;;;;;;;;;;;;;;19.82;43.69;93607.94;10440550;28;2513;-59
2023/10/19 18:20:37;;;;;;;;;;;;;;;19.83;43.67;93590.28;10434475;28;2599;-59
2023/10/19 18:25:41;;;;;;;;;;;;;;;19.81;43.86;93580.06;10436676;28;2696;-58
2023/10/19 18:30:42;;;;;;;;;;;;;;;19.81;43.86;93568.78;10432680;28;2860;-58
2023/10/19 18:35:42;;;;;;;;;;;;;;;19.81;43.54;93555.66;10433025;28;2815;-58
2023/10/19 18:40:52;;;;;;;;;;;;;;;19.78;43.62;93536.06;10432883;28;2881;-59
2023/10/19 18:45:52;;;;;;;;;;;;;;;19.79;43.70;93515.75;10411201;28;2648;-58
2023/10/19 18:50:55;;;;;;;;;;;;;;;19.78;43.80;93511.63;10432059;28;2556;-59
2023/10/19 18:55:56;;;;;;;;;;;;;;;19.78;43.73;93506.34;10426997;28;2595;-57
2023/10/19 19:00:57;;;;;;;;;;;;;;;19.77;43.64;93510.06;10440397;28;2618;-57
2023/10/19 19:05:59;;;;;;;;;;;;;;;19.77;43.78;93523.19;10429386;28;2564;-59
2023/10/19 19:10:59;;;;;;;;;;;;;;;19.77;43.64;93512.69;10432666;28;2768;-58
2023/10/19 19:15:59;;;;;;;;;;;;;;;19.77;43.58;93517.94;10433925;28;2901;-58
2023/10/19 19:21:03;;;;;;;;;;;;;;;19.75;43.79;93506.97;10432527;28;2638;-59
2023/10/19 19:26:03;;;;;;;;;;;;;;;19.74;43.84;93513.34;10431938;28;2539;-58
2023/10/19 19:31:04;;;;;;;;;;;;;;;19.74;43.60;93515.97;10434307;28;2587;-57
2023/10/19 19:36:04;;;;;;;;;;;;;;;19.73;43.84;93509.16;10428189;28;2671;-58
2023/10/19 19:41:04;;;;;;;;;;;;;;;19.72;43.83;93494.50;10431972;28;2541;-57
2023/10/19 19:46:05;;;;;;;;;;;;;;;19.72;43.59;93502.38;10435830;28;2634;-57
2023/10/19 19:51:08;;;;;;;;;;;;;;;19.73;43.75;93498.66;10432386;28;2591;-57
2023/10/19 19:56:09;;;;;;;;;;;;;;;19.70;43.64;93494.81;10431045;28;2568;-58
2023/10/19 20:01:10;;;;;;;;;;;;;;;19.70;43.55;93486.91;10430906;28;2685;-59
2023/10/19 20:06:14;;;;;;;;;;;;;;;19.70;43.56;93473.03;10430836;28;2611;-58
2023/10/19 20:11:18;;;;;;;;;;;;;;;19.70;43.61;93479.03;10433515;28;4757;-59
2023/10/19 20:16:19;;;;;;;;;;;;;;;19.70;43.52;93483.53;10414411;28;2755;-58
2023/10/19 20:21:20;;;;;;;;;;;;;;;19.70;43.64;93488.78;10429125;28;2753;-57
2023/10/19 20:26:21;;;;;;;;;;;;;;;19.69;43.47;93482.00;10430705;28;2890;-59
2023/10/19 20:31:22;;;;;;;;;;;;;;;19.69;43.41;93482.00;10429619;28;2893;-59
2023/10/19 20:36:23;;;;;;;;;;;;;;;19.68;43.51;93462.06;10427891;28;2579;-58
2023/10/19 20:41:23;;;;;;;;;;;;;;;19.66;43.75;93445.84;10429467;28;2652;-57
2023/10/19 20:46:23;;;;;;;;;;;;;;;19.67;43.50;93418.47;10427064;28;2596;-58
2023/10/19 20:51:23;;;;;;;;;;;;;;;19.67;43.48;93389.56;10427576;28;2824;-56
2023/10/19 20:56:24;;;;;;;;;;;;;;;19.66;43.40;93367.00;10418258;28;2729;-55
2023/10/19 21:01:24;;;;;;;;;;;;;;;19.66;43.59;93356.50;10425188;28;2604;-59
2023/10/19 21:06:25;;;;;;;;;;;;;;;19.64;43.44;93358.69;10428305;28;2802;-57
2023/10/19 21:11:26;;;;;;;;;;;;;;;19.64;43.66;93361.31;10424588;28;4821;-58
2023/10/19 21:16:26;;;;;;;;;;;;;;;19.64;43.49;93361.31;10425494;28;2611;-59
2023/10/19 21:21:27;;;;;;;;;;;;;;;19.63;43.38;93384.19;10432626;28;2791;-56
2023/10/19 21:26:27;;;;;;;;;;;;;;;19.63;43.44;93388.66;10426818;28;2529;-55
2023/10/19 21:31:28;;;;;;;;;;;;;;;19.61;43.52;93354.06;10423874;28;2607;-57
2023/10/19 21:36:28;;;;;;;;;;;;;;;19.63;43.44;93367.63;10423631;28;2810;-56
2023/10/19 21:41:28;;;;;;;;;;;;;;;19.61;43.47;93346.16;10426215;28;2655;-55
2023/10/19 21:46:30;;;;;;;;;;;;;;;19.61;43.55;93359.31;10425759;28;2561;-57
2023/10/19 21:51:30;;;;;;;;;;;;;;;19.61;43.48;93338.28;10424786;28;2823;-56
2023/10/19 21:56:30;;;;;;;;;;;;;;;19.60;43.59;93305.22;10423386;28;2663;-58
2023/10/19 22:01:31;;;;;;;;;;;;;;;19.59;43.71;93293.94;10424767;28;2675;-57
2023/10/19 22:06:32;;;;;;;;;;;;;;;19.60;43.63;93276.31;10423980;28;2554;-57
2023/10/19 22:11:33;;;;;;;;;;;;;;;19.59;43.40;93266.91;10429445;28;4813;-58
2023/10/19 22:16:34;;;;;;;;;;;;;;;19.59;43.48;93272.16;10424828;28;2967;-56
2023/10/19 22:21:35;;;;;;;;;;;;;;;19.59;43.52;93272.16;10423845;28;2958;-57
2023/10/19 22:26:37;;;;;;;;;;;;;;;19.58;43.42;93258.25;10426480;28;2551;-57
2023/10/19 22:31:37;;;;;;;;;;;;;;;19.58;43.37;93255.63;10420361;28;2824;-58
2023/10/19 22:36:37;;;;;;;;;;;;;;;19.58;43.49;93250.34;10427024;28;2772;-57
2023/10/19 22:41:38;;;;;;;;;;;;;;;19.58;43.34;93249.59;10424478;28;2722;-56
2023/10/19 22:46:38;;;;;;;;;;;;;;;19.56;43.26;93242.03;10430737;28;2815;-57
2023/10/19 22:51:38;;;;;;;;;;;;;;;19.55;43.39;93232.63;10426345;28;2632;-57
2023/10/19 22:56:39;;;;;;;;;;;;;;;19.56;43.38;93236.03;10436084;28;2525;-57
2023/10/19 23:01:39;;;;;;;;;;;;;;;19.56;43.36;93222.91;10433152;28;2591;-58
2023/10/19 23:06:40;;;;;;;;;;;;;;;19.56;43.29;93209.75;10433717;28;2640;-57
2023/10/19 23:11:40;;;;;;;;;;;;;;;19.54;43.42;93190.94;10434283;28;4565;-56
2023/10/19 23:16:41;;;;;;;;;;;;;;;19.54;43.28;93196.19;10427119;28;2720;-57
2023/10/19 23:21:41;;;;;;;;;;;;;;;19.53;43.42;93195.41;10431515;28;2527;-56
2023/10/19 23:26:46;;;;;;;;;;;;;;;19.53;43.23;93195.41;10431427;28;2610;-57
2023/10/19 23:31:49;;;;;;;;;;;;;;;19.53;43.33;93197.25;10431740;28;2618;-57
2023/10/19 23:36:49;;;;;;;;;;;;;;;19.52;43.27;93187.81;10429108;28;2664;-58
2023/10/19 23:41:50;;;;;;;;;;;;;;;19.51;43.44;93171.31;10429860;28;2799;-57
2023/10/19 23:46:51;;;;;;;;;;;;;;;19.51;43.40;93162.66;10427574;28;2893;-56
2023/10/19 23:51:51;;;;;;;;;;;;;;;19.51;43.22;93160.81;10431994;28;2599;-57
2023/10/19 23:56:51;;;;;;;;;;;;;;;19.51;43.16;93147.66;10424519;28;2610;-58
